Time;durP1;ratioP1;P1;durP2;ratioP2;P2;SDS_P1;SDS_P2;PMS_P1;PMS_P2;Temp;Humidity;BMP_temperature;BMP_pressure;BME280_temperature;BME280_humidity;BME280_pressure;Samples;Min_cycle;Max_cycle;Signal;HPM_P1;HPM_P2
2022/05/13 00:01:49;;;;;;;8.60;4.53;;;;;;;10.84;71.88;101033.63;5979794;28;20139;-65
2022/05/13 00:04:45;;;;;;;7.33;3.93;;;;;;;11.15;73.02;101027.16;5981049;28;20784;-68
2022/05/13 00:07:40;;;;;;;9.73;4.20;;;;;;;11.22;71.31;101025.63;5981835;28;20031;-66
2022/05/13 00:10:35;;;;;;;5.50;3.67;;;;;;;11.70;71.33;101029.03;5967765;28;20032;-67
2022/05/13 00:13:31;;;;;;;7.47;4.23;;;;;;;11.75;70.25;101010.81;5984645;28;20278;-67
2022/05/13 00:16:27;;;;;;;9.50;3.92;;;;;;;12.02;71.27;101023.28;5979743;28;20463;-67
2022/05/13 00:19:22;;;;;;;7.30;4.10;;;;;;;11.79;69.52;101019.34;5981628;28;20086;-66
2022/05/13 00:22:19;;;;;;;9.30;4.17;;;;;;;11.03;71.42;101023.00;5976694;28;20048;-67
2022/05/13 00:25:16;;;;;;;5.88;3.50;;;;;;;11.09;71.13;101017.94;5980935;28;20446;-66
2022/05/13 00:28:13;;;;;;;6.85;3.85;;;;;;;11.45;72.54;101016.34;5980181;28;20098;-67
2022/05/13 00:31:08;;;;;;;11.75;4.38;;;;;;;10.75;72.38;101022.03;5978612;28;20043;-65
2022/05/13 00:34:04;;;;;;;8.67;4.17;;;;;;;10.43;74.11;101019.66;5977133;28;20035;-67
2022/05/13 00:36:59;;;;;;;8.68;3.60;;;;;;;10.73;73.64;101027.47;5978895;28;20768;-66
2022/05/13 00:39:55;;;;;;;7.97;4.25;;;;;;;10.24;75.07;101019.63;5978030;28;20067;-67
2022/05/13 00:42:51;;;;;;;8.30;4.27;;;;;;;10.29;76.34;101016.53;5970606;28;20047;-67
2022/05/13 00:45:46;;;;;;;9.57;4.00;;;;;;;10.89;75.11;101016.31;5977961;28;20034;-66
2022/05/13 00:48:41;;;;;;;8.20;4.00;;;;;;;10.25;74.60;101010.66;5984807;28;20042;-67
2022/05/13 00:51:39;;;;;;;8.37;4.10;;;;;;;10.08;76.15;101013.97;5979236;28;20030;-66
2022/05/13 00:54:37;;;;;;;12.68;4.60;;;;;;;9.83;77.08;101017.06;5978794;28;20046;-66
2022/05/13 00:57:35;;;;;;;8.32;5.10;;;;;;;10.00;76.52;101011.97;5970747;29;20031;-67
2022/05/13 01:00:30;;;;;;;9.00;4.72;;;;;;;10.09;76.10;101010.31;5976373;28;20066;-66
2022/05/13 01:03:26;;;;;;;8.70;4.65;;;;;;;10.18;76.49;101006.91;5979207;28;20031;-67
2022/05/13 01:06:23;;;;;;;8.40;4.80;;;;;;;10.87;76.10;101006.81;5972364;28;20111;-67
2022/05/13 01:09:19;;;;;;;12.48;4.25;;;;;;;11.04;73.45;101001.63;5978766;28;20031;-66
2022/05/13 01:12:18;;;;;;;11.38;5.28;;;;;;;10.44;74.17;100983.34;5976193;28;20103;-66
2022/05/13 01:15:18;;;;;;;7.10;4.13;;;;;;;10.68;75.46;100992.56;5968428;28;20031;-66
2022/05/13 01:18:33;;;;;;;9.93;4.25;;;;;;;11.06;74.05;100996.19;5973232;28;20031;-66
2022/05/13 01:21:32;;;;;;;7.78;4.13;;;;;;;10.93;73.22;101000.94;5977480;28;20045;-67
2022/05/13 01:24:30;;;;;;;9.73;4.25;;;;;;;10.34;74.39;101004.56;5977836;28;20471;-65
2022/05/13 01:27:26;;;;;;;10.63;4.50;;;;;;;9.94;75.28;101006.38;5972604;28;20678;-65
2022/05/13 01:30:24;;;;;;;9.20;4.80;;;;;;;10.07;76.19;101007.81;5970034;28;20118;-66
2022/05/13 01:33:20;;;;;;;9.70;4.35;;;;;;;9.96;75.65;101009.72;5979783;28;20508;-65
2022/05/13 01:36:16;;;;;;;10.10;4.70;;;;;;;9.79;76.27;101002.41;5969314;28;20039;-68
2022/05/13 01:39:11;;;;;;;8.77;5.55;;;;;;;9.59;77.49;100996.22;5977563;28;20043;-66
2022/05/13 01:42:07;;;;;;;9.07;4.37;;;;;;;9.62;77.45;101001.22;5973240;28;20031;-67
2022/05/13 01:45:04;;;;;;;8.45;4.32;;;;;;;9.79;77.84;100994.47;5978003;28;20273;-67
2022/05/13 01:47:59;;;;;;;11.52;5.20;;;;;;;10.37;76.40;100990.19;5979278;28;20114;-67
2022/05/13 01:50:55;;;;;;;11.90;5.17;;;;;;;10.77;73.37;100991.72;5968334;29;20082;-67
2022/05/13 01:53:50;;;;;;;11.27;5.30;;;;;;;10.93;72.20;100979.69;5975674;28;20374;-65
2022/05/13 01:56:46;;;;;;;11.55;5.25;;;;;;;10.72;73.47;100978.06;5977878;28;20114;-67
2022/05/13 01:59:41;;;;;;;14.20;6.10;;;;;;;10.80;73.11;100984.47;5980319;28;20031;-67
2022/05/13 02:03:43;;;;;;;9.50;5.73;;;;;;;10.83;73.30;100974.41;5973024;28;20027;-66
2022/05/13 02:05:52;;;;;;;9.68;5.72;;;;;;;11.09;72.40;100980.78;5979283;29;20081;-66
2022/05/13 02:08:47;;;;;;;11.45;5.80;;;;;;;11.03;73.79;100975.25;5975637;28;20039;-66
2022/05/13 02:11:45;;;;;;;11.68;5.85;;;;;;;11.04;73.16;100987.50;5975462;28;20034;-67
2022/05/13 02:14:41;;;;;;;10.35;5.80;;;;;;;11.06;72.62;100983.72;5977208;28;20485;-67
2022/05/13 02:17:36;;;;;;;10.90;5.80;;;;;;;10.85;72.69;100982.22;5976348;28;20065;-67
2022/05/13 02:20:32;;;;;;;12.18;6.68;;;;;;;10.86;72.89;100990.06;5978714;28;20046;-66
2022/05/13 02:23:27;;;;;;;12.17;6.20;;;;;;;10.74;73.67;100992.00;5973205;28;20062;-67
2022/05/13 02:26:22;;;;;;;12.43;6.50;;;;;;;10.58;73.95;100991.72;5979641;28;20796;-67
2022/05/13 02:29:17;;;;;;;10.30;5.57;;;;;;;10.63;74.19;100983.34;5969712;28;20780;-67
2022/05/13 02:32:13;;;;;;;14.30;6.50;;;;;;;10.70;74.03;100980.03;5976686;28;20491;-67
2022/05/13 02:35:08;;;;;;;12.07;5.77;;;;;;;10.87;73.82;100973.13;5975783;28;20042;-66
2022/05/13 02:38:03;;;;;;;10.13;5.57;;;;;;;10.58;73.76;100980.28;5978391;28;20035;-67
2022/05/13 02:41:14;;;;;;;10.20;5.90;;;;;;;10.82;73.48;100983.34;5966879;28;20283;-66
2022/05/13 02:44:10;;;;;;;8.75;5.70;;;;;;;10.99;73.35;100973.84;5976888;29;20122;-66
2022/05/13 02:47:05;;;;;;;9.50;5.80;;;;;;;10.83;72.58;100968.28;5979430;28;20054;-65
2022/05/13 02:50:19;;;;;;;10.95;5.35;;;;;;;10.61;73.21;100975.56;5979399;28;20102;-67
2022/05/13 02:53:14;;;;;;;11.35;5.47;;;;;;;10.44;74.37;100986.00;5986005;28;20117;-65
2022/05/13 02:56:10;;;;;;;9.87;6.20;;;;;;;10.70;74.22;100977.38;5991277;28;20035;-66
2022/05/13 02:59:05;;;;;;;11.57;5.65;;;;;;;10.62;74.49;100976.41;5981794;28;20101;-67
2022/05/13 03:02:01;;;;;;;12.18;6.07;;;;;;;10.32;74.91;100985.31;5981906;28;20109;-66
2022/05/13 03:04:56;;;;;;;12.37;6.60;;;;;;;10.27;75.46;100976.94;5980947;28;20119;-66
2022/05/13 03:07:52;;;;;;;11.73;5.97;;;;;;;10.41;75.43;100983.66;5983905;28;20043;-67
2022/05/13 03:10:48;;;;;;;12.52;6.55;;;;;;;10.09;76.10;100974.06;5982527;28;20158;-67
2022/05/13 03:13:43;;;;;;;12.57;7.20;;;;;;;10.13;76.27;100969.38;5963841;28;20036;-65
2022/05/13 03:16:39;;;;;;;11.27;6.65;;;;;;;9.93;76.67;100972.91;5967320;28;20062;-66
2022/05/13 03:19:35;;;;;;;12.77;7.00;;;;;;;9.93;77.14;100975.56;5980890;28;20039;-66
2022/05/13 03:22:32;;;;;;;11.30;6.82;;;;;;;9.90;77.25;100973.19;5974479;28;20031;-65
2022/05/13 03:25:27;;;;;;;11.90;6.50;;;;;;;9.79;77.21;100967.97;5975190;29;20614;-68
2022/05/13 03:28:23;;;;;;;13.30;6.90;;;;;;;9.85;77.43;100968.28;5979864;28;20050;-66
2022/05/13 03:31:18;;;;;;;20.30;7.90;;;;;;;9.71;77.27;100973.97;5980923;28;20487;-67
2022/05/13 03:34:13;;;;;;;18.17;7.37;;;;;;;9.84;77.75;100971.06;5984396;28;20353;-67
2022/05/13 03:37:09;;;;;;;12.23;6.63;;;;;;;9.80;77.55;100981.09;5980944;28;20031;-65
2022/05/13 03:40:05;;;;;;;14.77;7.47;;;;;;;9.75;77.45;100974.53;5979598;28;20099;-66
2022/05/13 03:43:00;;;;;;;14.07;7.65;;;;;;;9.77;77.55;100962.84;5960360;29;20027;-67
2022/05/13 03:45:56;;;;;;;11.83;7.00;;;;;;;9.78;77.26;100971.63;5975369;28;20040;-67
2022/05/13 03:48:51;;;;;;;14.43;7.07;;;;;;;9.76;78.06;100962.94;5979410;29;20102;-66
2022/05/13 03:51:46;;;;;;;15.60;7.07;;;;;;;9.81;77.88;100968.72;5973292;28;20035;-66
2022/05/13 03:54:42;;;;;;;16.27;7.38;;;;;;;9.94;77.83;100969.28;5975749;29;20027;-66
2022/05/13 03:57:37;;;;;;;12.37;6.97;;;;;;;10.06;77.08;100957.59;5991787;28;20035;-66
2022/05/13 04:00:32;;;;;;;12.90;6.93;;;;;;;10.35;76.07;100968.28;5979481;28;20502;-67
2022/05/13 04:03:28;;;;;;;11.80;6.75;;;;;;;10.40;76.42;100969.53;5980288;28;20089;-66
2022/05/13 04:09:37;;;;;;;14.57;7.03;;;;;;;10.48;75.35;100953.78;5976701;29;20032;-67
2022/05/13 04:16:04;;;;;;;12.77;6.53;;;;;;;10.73;74.89;100957.69;5981772;28;20391;-67
2022/05/13 04:19:00;;;;;;;12.93;6.07;;;;;;;10.76;74.34;100946.78;5967446;28;20426;-67
2022/05/13 04:21:55;;;;;;;11.93;6.37;;;;;;;10.87;74.11;100959.06;5974285;29;20036;-67
2022/05/13 04:24:52;;;;;;;10.50;6.00;;;;;;;10.95;73.77;100967.16;5989751;28;20774;-66
2022/05/13 04:27:47;;;;;;;13.30;6.22;;;;;;;10.88;73.92;100964.22;5974127;28;20035;-66
2022/05/13 04:30:42;;;;;;;11.80;6.27;;;;;;;11.05;73.77;100960.00;5976733;29;20046;-68
2022/05/13 04:33:38;;;;;;;8.97;5.80;;;;;;;11.11;73.37;100962.09;5965224;28;20035;-67
2022/05/13 04:36:34;;;;;;;10.73;6.18;;;;;;;11.08;73.37;100968.53;5979220;28;20415;-65
2022/05/13 04:39:29;;;;;;;13.13;6.30;;;;;;;11.23;72.73;100971.53;5985322;28;20047;-67
2022/05/13 04:45:38;;;;;;;16.10;6.07;;;;;;;11.36;72.16;100977.38;5979730;29;20043;-66
2022/05/13 04:48:34;;;;;;;10.70;6.20;;;;;;;11.55;71.83;100972.00;5969560;28;20035;-66
2022/05/13 04:51:29;;;;;;;10.43;5.57;;;;;;;11.67;71.37;100976.16;5978180;28;20038;-66
2022/05/13 04:54:25;;;;;;;11.85;6.28;;;;;;;11.73;70.70;100978.25;5967782;28;20036;-67
2022/05/13 04:57:20;;;;;;;12.40;5.57;;;;;;;11.85;70.49;100978.88;5975082;28;20142;-66
2022/05/13 05:00:16;;;;;;;8.33;5.67;;;;;;;11.84;70.09;100978.06;5974933;28;20471;-65
2022/05/13 05:03:11;;;;;;;11.27;6.00;;;;;;;11.97;70.21;100983.03;5977376;29;20113;-66
2022/05/13 05:06:07;;;;;;;10.73;6.33;;;;;;;12.03;69.72;100982.44;5976462;28;20063;-66
2022/05/13 05:09:03;;;;;;;14.35;5.70;;;;;;;12.17;69.05;100970.47;5978456;28;20031;-67
2022/05/13 05:11:58;;;;;;;10.18;6.00;;;;;;;12.21;69.69;100977.13;5974108;28;20538;-67
2022/05/13 05:14:53;;;;;;;11.30;5.70;;;;;;;12.23;69.82;100983.16;5979658;28;20031;-68
2022/05/13 05:17:49;;;;;;;11.63;5.32;;;;;;;12.52;68.69;100983.78;5977467;28;20035;-66
2022/05/13 05:20:45;;;;;;;10.23;5.95;;;;;;;12.73;68.02;100992.28;5979440;28;20071;-65
2022/05/13 05:23:43;;;;;;;10.65;5.28;;;;;;;12.81;67.94;100984.38;5969264;28;20035;-67
2022/05/13 05:26:38;;;;;;;10.38;5.43;;;;;;;12.98;66.42;100983.53;5981007;28;20551;-66
2022/05/13 05:29:33;;;;;;;13.23;6.13;;;;;;;12.97;66.21;100971.19;5979554;28;20045;-67
2022/05/13 05:32:28;;;;;;;9.63;5.20;;;;;;;13.18;66.20;100972.72;5974484;28;20039;-66
2022/05/13 05:35:24;;;;;;;11.03;5.03;;;;;;;13.49;65.22;100974.72;5980352;28;20448;-67
2022/05/13 05:38:19;;;;;;;10.27;5.70;;;;;;;13.79;64.22;100992.03;5978493;28;20035;-67
2022/05/13 05:41:14;;;;;;;10.03;4.90;;;;;;;14.20;63.12;100985.84;5977317;28;20286;-66
2022/05/13 05:44:10;;;;;;;11.20;4.90;;;;;;;14.36;62.50;100989.56;5980932;28;20114;-68
2022/05/13 05:47:05;;;;;;;10.77;5.13;;;;;;;13.97;64.08;100999.94;5971272;28;20046;-68
2022/05/13 05:50:04;;;;;;;12.63;5.15;;;;;;;13.95;64.02;101001.91;5974294;28;20454;-67
2022/05/13 05:53:01;;;;;;;7.40;5.05;;;;;;;13.84;64.27;101010.19;5967872;28;20057;-68
2022/05/13 05:59:10;;;;;;;12.60;5.03;;;;;;;13.82;65.07;101014.88;5977324;28;20035;-68
2022/05/13 06:02:06;;;;;;;8.70;4.22;;;;;;;13.79;63.77;101008.03;5964474;28;20046;-67
2022/05/13 06:05:01;;;;;;;9.18;4.82;;;;;;;13.56;64.98;101026.38;5977336;29;20518;-65
2022/05/13 06:08:00;;;;;;;7.50;4.60;;;;;;;13.50;65.47;101028.84;5975559;28;20050;-68
2022/05/13 06:10:55;;;;;;;9.50;4.45;;;;;;;13.34;66.14;101039.41;5977605;28;20407;-67
2022/05/13 06:13:54;;;;;;;7.85;4.28;;;;;;;13.33;65.30;101035.06;5977508;28;20035;-68
2022/05/13 06:16:51;;;;;;;6.80;3.92;;;;;;;13.31;65.50;101045.88;5975653;28;20479;-67
2022/05/13 06:19:46;;;;;;;9.70;3.88;;;;;;;13.26;65.73;101040.19;5973944;28;20093;-66
2022/05/13 06:22:41;;;;;;;7.47;3.93;;;;;;;13.31;65.41;101037.03;5978516;28;20439;-68
2022/05/13 06:25:38;;;;;;;7.07;3.90;;;;;;;13.40;65.12;101034.28;5979593;28;20038;-66
2022/05/13 06:28:34;;;;;;;9.00;3.60;;;;;;;13.57;64.37;101043.22;5979724;28;20058;-67
2022/05/13 06:31:29;;;;;;;6.75;3.50;;;;;;;13.66;62.84;101055.59;5974689;28;20031;-65
2022/05/13 06:34:25;;;;;;;7.68;3.50;;;;;;;13.65;63.00;101060.09;5971801;28;20256;-67
2022/05/13 06:37:20;;;;;;;7.70;3.23;;;;;;;13.52;62.78;101058.84;5966636;28;20475;-68
2022/05/13 06:40:15;;;;;;;6.83;3.03;;;;;;;13.46;63.45;101065.63;5970889;28;20146;-66
2022/05/13 06:43:10;;;;;;;8.97;3.50;;;;;;;13.36;62.98;101056.06;5979025;28;20031;-68
2022/05/13 06:46:06;;;;;;;7.63;3.53;;;;;;;13.33;63.08;101043.03;5975216;28;20138;-67
2022/05/13 06:49:04;;;;;;;9.90;3.23;;;;;;;13.32;62.07;101046.69;5971817;28;20031;-67
2022/05/13 06:52:01;;;;;;;8.00;3.30;;;;;;;13.15;63.04;101052.91;5974994;29;20054;-66
2022/05/13 06:54:56;;;;;;;6.15;2.58;;;;;;;13.18;62.12;101057.94;5976311;28;20066;-66
2022/05/13 06:57:51;;;;;;;5.90;2.70;;;;;;;13.35;62.54;101062.38;5975326;28;20023;-67
2022/05/13 07:00:47;;;;;;;8.87;2.70;;;;;;;13.44;61.81;101056.13;5967656;28;20295;-67
2022/05/13 07:03:42;;;;;;;6.15;2.70;;;;;;;13.47;61.88;101051.31;5972084;28;20102;-66
2022/05/13 07:06:37;;;;;;;5.23;3.03;;;;;;;13.57;61.58;101043.22;5978792;28;20039;-66
2022/05/13 07:09:34;;;;;;;8.55;2.78;;;;;;;13.94;61.09;101049.06;5979111;28;20035;-67
2022/05/13 07:12:29;;;;;;;6.30;2.80;;;;;;;14.11;59.95;101049.97;5978167;28;20046;-67
2022/05/13 07:15:24;;;;;;;7.40;3.10;;;;;;;14.30;59.49;101042.56;5979071;28;20246;-68
2022/05/13 07:18:20;;;;;;;8.52;2.72;;;;;;;14.60;58.67;101051.00;5987347;28;20326;-67
2022/05/13 07:21:16;;;;;;;5.60;2.85;;;;;;;14.58;58.59;101047.66;5968532;28;20043;-68
2022/05/13 07:24:11;;;;;;;7.13;2.75;;;;;;;14.66;58.66;101053.88;5976697;28;20067;-67
2022/05/13 07:27:06;;;;;;;9.33;2.73;;;;;;;14.76;59.10;101051.88;5976226;29;20127;-66
2022/05/13 07:30:03;;;;;;;7.50;2.70;;;;;;;15.12;57.41;101049.72;5975646;28;20038;-67
2022/05/13 07:32:59;;;;;;;8.65;3.38;;;;;;;15.36;57.09;101047.03;5978047;28;20122;-66
2022/05/13 07:35:54;;;;;;;6.97;3.00;;;;;;;15.73;56.29;101051.03;5980724;28;20039;-66
2022/05/13 07:42:04;;;;;;;9.20;3.38;;;;;;;15.98;54.78;101040.06;5991648;28;20039;-67
2022/05/13 07:45:00;;;;;;;12.85;3.38;;;;;;;15.67;55.04;101046.38;5982300;28;20058;-67
2022/05/13 07:47:55;;;;;;;8.70;3.67;;;;;;;15.45;56.92;101051.38;5982199;28;20035;-65
2022/05/13 07:50:52;;;;;;;9.73;3.45;;;;;;;15.24;56.92;101053.75;5981519;28;20285;-65
2022/05/13 07:53:47;;;;;;;8.88;3.50;;;;;;;14.93;56.06;101047.38;5982322;28;20046;-66
2022/05/13 07:56:43;;;;;;;6.82;3.40;;;;;;;14.87;57.55;101042.69;5985649;28;20054;-66
2022/05/13 08:02:55;;;;;;;6.65;2.88;;;;;;;14.46;58.07;101054.34;5976719;29;20036;-67
2022/05/13 08:05:51;;;;;;;8.90;3.20;;;;;;;14.25;59.55;101060.03;5974155;29;20039;-67
2022/05/13 08:08:53;;;;;;;6.85;2.53;;;;;;;14.66;59.83;101050.34;5975091;28;20070;-67
2022/05/13 08:11:48;;;;;;;13.10;2.92;;;;;;;14.91;57.76;101054.75;5980935;28;20047;-67
2022/05/13 08:14:43;;;;;;;8.50;2.93;;;;;;;15.44;56.65;101055.06;5981152;28;20120;-66
2022/05/13 08:17:39;;;;;;;6.70;2.13;;;;;;;15.76;55.30;101061.41;5981603;28;20042;-67
2022/05/13 08:20:35;;;;;;;8.17;2.40;;;;;;;16.15;53.11;101053.38;5981297;28;20391;-66
2022/05/13 08:23:30;;;;;;;6.28;2.60;;;;;;;16.64;53.64;101071.75;5981230;28;20411;-66
2022/05/13 08:26:25;;;;;;;5.83;2.40;;;;;;;17.02;51.17;101061.09;5971925;28;20039;-66
2022/05/13 08:29:21;;;;;;;5.40;2.07;;;;;;;16.85;49.45;101070.28;5979668;28;20039;-68
2022/05/13 08:32:16;;;;;;;7.07;1.70;;;;;;;16.65;50.82;101065.41;5973914;28;20085;-67
2022/05/13 08:35:13;;;;;;;6.77;1.87;;;;;;;16.49;51.74;101070.81;5981818;28;20039;-66
2022/05/13 08:38:09;;;;;;;6.63;2.30;;;;;;;16.72;51.23;101064.66;5981258;28;20399;-66
2022/05/13 08:41:07;;;;;;;9.63;1.70;;;;;;;16.90;51.79;101073.25;5977261;28;20067;-66
2022/05/13 08:44:07;;;;;;;6.75;2.25;;;;;;;17.19;52.06;101068.00;5974277;28;20039;-67
2022/05/13 08:47:33;;;;;;;10.38;2.13;;;;;;;17.07;51.31;101069.44;5980320;28;20035;-67
2022/05/13 08:50:38;;;;;;;6.07;1.70;;;;;;;16.85;51.80;101070.28;5966317;29;20043;-67
2022/05/13 08:53:43;;;;;;;6.18;1.80;;;;;;;16.82;50.85;101070.63;5988954;28;20134;-67
2022/05/13 08:56:38;;;;;;;9.38;2.63;;;;;;;16.87;50.92;101078.97;5980425;28;20168;-67
2022/05/13 08:59:47;;;;;;;8.38;2.00;;;;;;;17.04;49.84;101070.63;5979871;28;20450;-67
2022/05/13 09:03:19;;;;;;;6.03;1.88;;;;;;;17.08;50.53;101076.47;5975098;28;20046;-66
2022/05/13 09:06:39;;;;;;;7.20;1.92;;;;;;;16.70;51.95;101082.75;5978618;28;20035;-66
2022/05/13 09:09:35;;;;;;;7.75;2.25;;;;;;;17.14;51.46;101076.59;5972202;29;20471;-67
2022/05/13 09:12:45;;;;;;;6.68;1.90;;;;;;;16.93;51.11;101079.09;5972668;28;20040;-67
2022/05/13 09:15:47;;;;;;;11.27;2.30;;;;;;;17.01;51.01;101088.94;5984613;28;20078;-67
2022/05/13 09:18:58;;;;;;;5.60;1.70;;;;;;;16.83;51.07;101083.00;5982083;28;20046;-66
2022/05/13 09:21:53;;;;;;;5.95;1.70;;;;;;;16.70;50.96;101077.41;5977967;29;20042;-66
2022/05/13 09:24:48;;;;;;;9.87;2.20;;;;;;;17.13;51.50;101076.75;5980141;28;20031;-66
2022/05/13 09:27:45;;;;;;;6.13;1.93;;;;;;;16.82;51.22;101081.34;5980032;28;20279;-67
2022/05/13 09:30:43;;;;;;;6.65;2.20;;;;;;;16.34;52.53;101083.25;5975023;28;20036;-66
2022/05/13 09:33:40;;;;;;;7.13;2.10;;;;;;;15.84;54.53;101091.63;5966429;28;20031;-67
2022/05/13 09:36:35;;;;;;;6.57;2.10;;;;;;;15.59;55.45;101097.19;5979454;28;20039;-67
2022/05/13 09:39:37;;;;;;;3.53;1.90;;;;;;;15.57;56.50;101091.16;5976563;28;20058;-68
2022/05/13 09:42:40;;;;;;;8.55;2.05;;;;;;;15.29;56.71;101096.84;5974632;28;20326;-66
2022/05/13 09:45:35;;;;;;;7.30;2.05;;;;;;;15.31;57.20;101100.16;5978069;28;20038;-68
2022/05/13 09:48:33;;;;;;;5.67;2.00;;;;;;;15.46;56.31;101100.38;5978284;28;20031;-67
2022/05/13 09:51:35;;;;;;;10.65;2.30;;;;;;;15.66;55.72;101092.81;5975561;28;20398;-67
2022/05/13 09:54:33;;;;;;;8.95;2.00;;;;;;;15.76;56.38;101088.94;5980123;28;20046;-68
2022/05/13 09:57:31;;;;;;;5.93;1.90;;;;;;;16.25;56.15;101086.94;5965124;28;20099;-66
2022/05/13 10:00:32;;;;;;;6.65;2.10;;;;;;;16.53;54.50;101098.06;5972610;28;20043;-68
2022/05/13 10:03:35;;;;;;;3.88;1.77;;;;;;;16.75;54.39;101096.44;5976572;28;20097;-66
2022/05/13 10:06:34;;;;;;;7.25;2.65;;;;;;;17.22;51.83;101073.00;5965085;29;20034;-67
2022/05/13 10:16:03;;;;;;;5.22;1.88;;;;;;;16.80;50.45;101094.91;5977283;29;20035;-67
2022/05/13 10:19:05;;;;;;;2.95;1.60;;;;;;;16.95;51.02;101093.16;5976081;28;20031;-68
2022/05/13 10:22:13;;;;;;;4.25;1.67;;;;;;;16.87;50.61;101070.94;5978293;28;20039;-68
2022/05/13 10:25:20;;;;;;;6.53;1.63;;;;;;;16.62;51.91;101089.00;5979041;28;20027;-66
2022/05/13 10:28:18;;;;;;;6.00;1.75;;;;;;;16.71;51.75;101079.09;5978552;28;20578;-67
2022/05/13 10:31:17;;;;;;;5.18;1.50;;;;;;;17.28;49.08;101083.84;5977587;28;20031;-67
2022/05/13 10:34:36;;;;;;;7.53;1.88;;;;;;;17.72;45.83;101086.66;5978755;28;20050;-66
2022/05/13 10:37:44;;;;;;;5.25;1.58;;;;;;;18.04;46.39;101090.84;5988168;28;20110;-68
2022/05/13 10:40:42;;;;;;;5.82;1.70;;;;;;;17.77;47.18;101086.94;5978112;28;20039;-67
2022/05/13 10:43:48;;;;;;;5.47;1.23;;;;;;;17.26;47.77;101088.56;5978425;28;20379;-66
2022/05/13 10:46:57;;;;;;;;;;;;;;;17.28;48.20;101088.38;5977063;29;20399;-67
2022/05/13 10:49:52;;;;;;;4.22;1.30;;;;;;;17.67;47.75;101085.53;5976939;28;19915;-68
2022/05/13 10:52:54;;;;;;;3.30;1.30;;;;;;;17.36;47.56;101096.34;5972480;28;20045;-68
2022/05/13 10:56:02;;;;;;;2.92;1.27;;;;;;;17.74;48.89;101100.72;5966564;28;20275;-68
2022/05/13 10:59:10;;;;;;;6.15;1.38;;;;;;;18.29;46.94;101088.72;5978707;28;20043;-66
2022/05/13 11:02:35;;;;;;;5.18;1.60;;;;;;;18.84;45.77;101093.50;5964232;29;20398;-67
2022/05/13 11:05:42;;;;;;;;;;;;;;;19.28;43.64;101090.66;5973012;28;20047;-67
2022/05/13 11:08:56;;;;;;;6.10;1.80;;;;;;;18.37;44.44;101078.69;5972277;28;19919;-67
2022/05/13 11:11:55;;;;;;;4.10;1.42;;;;;;;17.84;44.57;101090.56;5978002;29;20054;-66
2022/05/13 11:15:05;;;;;;;4.55;1.30;;;;;;;17.26;45.50;101096.59;5981050;28;20042;-67
2022/05/13 11:18:03;;;;;;;5.18;1.60;;;;;;;16.84;47.85;101095.41;5983103;28;20062;-67
2022/05/13 11:21:23;;;;;;;3.35;1.40;;;;;;;16.64;47.42;101106.56;5981899;28;20066;-66
2022/05/13 11:28:28;;;;;;;5.38;1.70;;;;;;;16.73;48.05;101111.88;5982453;28;20399;-67
2022/05/13 11:31:36;;;;;;;3.60;1.20;;;;;;;17.38;47.03;101105.03;5976607;29;20122;-67
2022/05/13 11:35:10;;;;;;;5.50;1.20;;;;;;;18.47;45.03;101096.34;5982414;28;20182;-67
2022/05/13 11:38:11;;;;;;;4.03;1.20;;;;;;;19.39;43.38;101098.22;5982214;28;20035;-67
2022/05/13 11:41:10;;;;;;;4.00;1.42;;;;;;;18.78;44.95;101100.47;5980369;28;20035;-67
2022/05/13 11:44:06;;;;;;;4.32;1.30;;;;;;;18.71;45.41;101107.66;5982145;28;20075;-66
2022/05/13 11:47:08;;;;;;;4.53;1.52;;;;;;;18.22;45.00;101109.25;5977894;28;20028;-66
2022/05/13 11:50:03;;;;;;;3.55;1.25;;;;;;;17.89;45.41;101108.78;5963899;29;20028;-67
2022/05/13 11:52:59;;;;;;;4.15;1.30;;;;;;;17.47;47.33;101120.06;5975600;29;20039;-69
2022/05/13 11:55:54;;;;;;;5.88;1.52;;;;;;;17.26;48.04;101125.25;5973636;28;20038;-68
2022/05/13 11:58:54;;;;;;;4.83;1.43;;;;;;;17.07;48.52;101123.03;5969586;28;20503;-67
2022/05/13 12:01:51;;;;;;;4.88;1.30;;;;;;;17.12;48.29;101118.00;5980464;28;20033;-68
2022/05/13 12:05:24;;;;;;;4.68;1.10;;;;;;;17.20;47.70;101117.94;5981525;28;20038;-67
2022/05/13 12:08:31;;;;;;;7.10;1.52;;;;;;;17.38;46.61;101107.72;5973138;28;20031;-67
2022/05/13 12:11:36;;;;;;;4.85;1.10;;;;;;;18.06;46.92;101114.81;5977239;29;20042;-67
2022/05/13 12:14:41;;;;;;;3.78;1.20;;;;;;;18.58;43.73;101104.81;5981805;28;20542;-67
2022/05/13 12:17:59;;;;;;;5.00;1.20;;;;;;;18.56;46.03;101103.34;5981636;28;20039;-67
2022/05/13 12:21:15;;;;;;;4.88;1.50;;;;;;;18.22;46.45;101120.00;5980687;28;20043;-66
2022/05/13 12:24:10;;;;;;;2.42;1.20;;;;;;;17.99;45.70;101114.69;5981506;28;20046;-66
2022/05/13 12:27:11;;;;;;;3.83;1.43;;;;;;;18.14;46.97;101114.72;5981358;28;20039;-67
2022/05/13 12:30:32;;;;;;;3.00;1.42;;;;;;;18.01;46.30;101117.22;5980514;28;20267;-68
2022/05/13 12:33:29;;;;;;;4.10;1.30;;;;;;;18.01;47.55;101125.28;5980993;28;20027;-68
2022/05/13 12:40:04;;;;;;;3.95;1.20;;;;;;;18.36;45.67;101132.59;5981242;28;20043;-67
2022/05/13 12:43:06;;;;;;;2.28;1.15;;;;;;;18.30;45.76;101144.91;5972757;28;20043;-67
2022/05/13 12:46:17;;;;;;;8.30;1.67;;;;;;;18.11;46.39;101123.97;5968160;29;20035;-67
2022/05/13 12:49:19;;;;;;;4.28;1.30;;;;;;;18.98;46.81;101122.22;5973496;29;20095;-67
2022/05/13 12:52:29;;;;;;;3.38;1.30;;;;;;;18.92;45.41;101113.03;5979382;28;20039;-66
2022/05/13 12:55:25;;;;;;;5.78;1.42;;;;;;;18.57;46.08;101130.00;5985911;28;20042;-66
2022/05/13 12:58:20;;;;;;;3.70;1.52;;;;;;;18.16;47.06;101129.63;5977431;28;20031;-68
2022/05/13 13:01:17;;;;;;;6.28;1.52;;;;;;;17.69;48.66;101135.28;5965243;28;20058;-66
2022/05/13 13:04:17;;;;;;;9.55;1.42;;;;;;;17.04;48.83;101144.84;5967325;28;20124;-67
2022/05/13 13:07:20;;;;;;;3.47;1.52;;;;;;;16.75;48.81;101144.66;5977520;28;20066;-67
2022/05/13 13:10:17;;;;;;;4.43;1.42;;;;;;;16.77;49.95;101148.03;5982752;28;20543;-67
2022/05/13 13:13:20;;;;;;;5.55;1.83;;;;;;;17.24;48.36;101151.41;5965366;28;20101;-66
2022/05/13 13:16:33;;;;;;;4.97;1.25;;;;;;;18.09;47.10;101135.91;5971342;29;20118;-67
2022/05/13 13:19:30;;;;;;;5.03;1.73;;;;;;;18.47;46.81;101133.97;5976188;28;20098;-67
2022/05/13 13:22:31;;;;;;;6.88;1.52;;;;;;;18.38;46.62;101130.53;5972151;28;20027;-68
2022/05/13 13:25:29;;;;;;;6.28;1.67;;;;;;;18.78;46.78;101131.91;5975776;28;20039;-67
2022/05/13 13:28:27;;;;;;;10.30;1.95;;;;;;;19.46;43.82;101131.38;5976445;28;20096;-67
2022/05/13 13:31:25;;;;;;;5.07;1.48;;;;;;;19.14;44.79;101138.09;5975380;28;20471;-68
2022/05/13 13:34:29;;;;;;;8.70;1.88;;;;;;;18.42;46.77;101139.91;5976772;28;20086;-67
2022/05/13 13:37:34;;;;;;;4.55;1.45;;;;;;;17.91;46.45;101147.00;5979972;28;20039;-67
2022/05/13 13:40:35;;;;;;;5.75;1.25;;;;;;;17.70;48.24;101147.69;5978723;28;20034;-67
2022/05/13 13:43:30;;;;;;;3.33;1.25;;;;;;;17.81;47.22;101133.84;5979629;28;20109;-67
2022/05/13 13:46:36;;;;;;;4.53;1.50;;;;;;;17.92;47.71;101140.63;5979346;28;20479;-67
2022/05/13 13:49:36;;;;;;;9.18;1.80;;;;;;;18.28;47.15;101138.06;5981117;28;20479;-67
2022/05/13 13:52:35;;;;;;;4.10;1.42;;;;;;;18.64;47.10;101138.16;5978743;28;20494;-67
2022/05/13 13:55:35;;;;;;;6.15;1.70;;;;;;;18.48;46.55;101147.22;5979571;28;20058;-66
2022/05/13 13:58:39;;;;;;;4.97;2.00;;;;;;;18.39;47.47;101138.44;5966504;28;20062;-67
2022/05/13 14:01:36;;;;;;;4.85;1.60;;;;;;;18.22;46.86;101128.03;5977329;28;20027;-68
2022/05/13 14:04:32;;;;;;;7.85;1.98;;;;;;;18.53;46.67;101134.09;5978026;28;20062;-68
2022/05/13 14:07:27;;;;;;;5.03;1.70;;;;;;;19.21;45.23;101124.72;5979004;28;20040;-67
2022/05/13 14:10:34;;;;;;;7.50;1.90;;;;;;;19.96;44.69;101109.66;5955217;29;20031;-68
2022/05/13 14:13:41;;;;;;;6.18;1.50;;;;;;;20.27;44.11;101124.56;5971336;29;20043;-68
2022/05/13 14:17:02;;;;;;;;;;;;;;;20.31;43.22;101117.75;5973260;29;20487;-66
2022/05/13 14:20:14;;;;;;;7.60;1.60;;;;;;;20.33;44.21;101126.47;5979382;28;20398;-67
2022/05/13 14:23:15;;;;;;;5.55;1.70;;;;;;;21.14;41.63;101118.28;5974324;28;20023;-67
2022/05/13 14:26:11;;;;;;;4.07;1.58;;;;;;;20.99;41.14;101119.44;5975104;28;20732;-67